Lakefield, Canada
Current Conditions -  °F | °C
As of 3:00 PM on Monday 26 Jan 2015 (Local Time) from CYPQ Reporting Station
Overcast Overcast  
Wind Chill: -1°   Ceiling: 5500
Heat Index: 14°   Visibility: 9mi
Dew Point: -2°   Wind: 14mph
Humidity: 49%   Direction: 40°NE
Pressure: 30"   Gusts: 21mph
Location:  44.43°N, 78.27°W
Report Text: CYPQ 262000Z AUTO 04012G18KT 9SM OVC055 M10/M19 A3000 RMK SLP173
Loading
Personal Weather Stations






























Interactive Weather Map New forecast layout! Learn more

10-Day Weather Forecast

Advertisements
Track Severe Weather on mobile